Time;durP1;ratioP1;P1;durP2;ratioP2;P2;SDS_P1;SDS_P2;PMS_P1;PMS_P2;Temp;Humidity;BMP_temperature;BMP_pressure;BME280_temperature;BME280_humidity;BME280_pressure;Samples;Min_cycle;Max_cycle;Signal;HPM_P1;HPM_P2
2024/01/20 00:01:52;;;;;;;;;;;18.10;56.40;;;;;;5105805;27;42932;-79
2024/01/20 00:04:18;;;;;;;;;;;18.10;56.40;;;;;;5105007;27;43423;-78
2024/01/20 00:06:43;;;;;;;;;;;18.10;56.40;;;;;;5104819;27;42949;-77
2024/01/20 00:09:09;;;;;;;;;;;18.10;56.30;;;;;;5102659;27;43600;-77
2024/01/20 00:11:34;;;;;;;;;;;18.10;56.40;;;;;;5105655;27;42944;-76
2024/01/20 00:14:00;;;;;;;;;;;18.10;56.30;;;;;;5105687;27;43516;-77
2024/01/20 00:16:25;;;;;;;;;;;18.10;56.30;;;;;;5105666;27;42859;-77
2024/01/20 00:18:51;;;;;;;;;;;18.10;56.30;;;;;;5105380;27;43613;-75
2024/01/20 00:21:16;;;;;;;;;;;18.10;56.40;;;;;;5086802;27;43558;-78
2024/01/20 00:23:42;;;;;;;;;;;18.10;56.30;;;;;;5105171;27;43496;-77
2024/01/20 00:26:07;;;;;;;;;;;18.10;56.80;;;;;;5104635;27;43301;-76
2024/01/20 00:28:33;;;;;;;;;;;18.10;56.30;;;;;;5105015;27;43043;-77
2024/01/20 00:30:58;;;;;;;;;;;18.10;56.30;;;;;;5106080;27;42909;-78
2024/01/20 00:33:25;;;;;;;;;;;18.00;56.20;;;;;;5110884;27;43013;-77
2024/01/20 00:35:51;;;;;;;;;;;18.00;56.30;;;;;;5103483;27;42944;-77
2024/01/20 00:38:17;;;;;;;;;;;18.10;56.30;;;;;;5105483;27;43020;-78
2024/01/20 00:40:42;;;;;;;;;;;18.10;56.20;;;;;;5104857;27;42779;-77
2024/01/20 00:43:08;;;;;;;;;;;18.00;56.20;;;;;;5104200;27;43605;-77
2024/01/20 00:45:33;;;;;;;;;;;18.10;56.30;;;;;;5104772;27;43087;-77
2024/01/20 00:47:59;;;;;;;;;;;18.10;56.30;;;;;;5104394;27;43716;-77
2024/01/20 00:50:24;;;;;;;;;;;18.00;56.20;;;;;;5104866;27;43044;-75
2024/01/20 00:52:50;;;;;;;;;;;18.00;56.20;;;;;;5105064;27;43136;-77
2024/01/20 00:55:15;;;;;;;;;;;18.00;56.20;;;;;;5104408;27;43065;-77
2024/01/20 00:57:41;;;;;;;;;;;18.00;56.30;;;;;;5104076;27;43579;-76
2024/01/20 01:00:09;;;;;;;;;;;18.10;56.30;;;;;;5104120;27;43000;-77
2024/01/20 01:02:38;;;;;;;;;;;18.00;56.20;;;;;;5085942;27;44463;-77
2024/01/20 01:05:05;;;;;;;;;;;18.00;56.10;;;;;;5103733;27;43052;-75
2024/01/20 01:07:31;;;;;;;;;;;18.00;56.10;;;;;;5102004;27;44370;-76
2024/01/20 01:09:57;;;;;;;;;;;18.00;56.20;;;;;;5104885;27;43402;-77
2024/01/20 01:12:23;;;;;;;;;;;18.00;56.20;;;;;;5104459;27;43049;-77
2024/01/20 01:14:48;;;;;;;;;;;18.00;56.20;;;;;;5086241;27;43011;-77
2024/01/20 01:17:14;;;;;;;;;;;18.00;56.20;;;;;;5105741;27;43629;-77
2024/01/20 01:19:39;;;;;;;;;;;18.00;56.20;;;;;;5108449;27;42976;-76
2024/01/20 01:22:05;;;;;;;;;;;18.00;56.20;;;;;;5107948;27;43726;-77
2024/01/20 01:24:31;;;;;;;;;;;18.10;56.20;;;;;;5107987;27;43043;-77
2024/01/20 01:26:56;;;;;;;;;;;18.00;56.20;;;;;;5107338;27;43405;-78
2024/01/20 01:29:22;;;;;;;;;;;18.00;56.20;;;;;;5107482;27;43000;-78
2024/01/20 01:31:47;;;;;;;;;;;18.00;56.20;;;;;;5107616;27;42814;-77
2024/01/20 01:34:13;;;;;;;;;;;18.00;56.20;;;;;;5107654;27;42953;-77
2024/01/20 01:36:38;;;;;;;;;;;18.00;56.20;;;;;;5088694;27;45200;-76
2024/01/20 01:39:04;;;;;;;;;;;18.00;56.20;;;;;;5107444;27;42912;-77
2024/01/20 01:41:29;;;;;;;;;;;18.00;56.20;;;;;;5104356;27;44295;-77
2024/01/20 01:43:55;;;;;;;;;;;18.00;56.10;;;;;;5106181;27;43188;-76
2024/01/20 01:46:20;;;;;;;;;;;18.00;56.10;;;;;;5106439;27;43596;-75
2024/01/20 01:48:46;;;;;;;;;;;18.00;56.20;;;;;;5106905;27;43028;-76
2024/01/20 01:51:15;;;;;;;;;;;18.00;56.20;;;;;;5107552;27;43051;-77
2024/01/20 01:53:40;;;;;;;;;;;18.00;56.10;;;;;;5107828;27;43129;-76
2024/01/20 01:56:06;;;;;;;;;;;18.00;56.10;;;;;;5087929;27;44647;-74
2024/01/20 01:58:32;;;;;;;;;;;18.00;56.10;;;;;;5107257;27;42945;-75
2024/01/20 02:00:58;;;;;;;;;;;18.00;56.10;;;;;;5098910;27;43509;-76
2024/01/20 02:03:24;;;;;;;;;;;18.00;56.20;;;;;;5106292;27;42935;-75
2024/01/20 02:05:49;;;;;;;;;;;18.00;55.60;;;;;;5107078;27;42794;-77
2024/01/20 02:08:15;;;;;;;;;;;18.00;56.10;;;;;;5106581;27;43029;-75
2024/01/20 02:10:42;;;;;;;;;;;18.00;56.10;;;;;;5106920;27;43503;-78
2024/01/20 02:13:09;;;;;;;;;;;15.80;55.00;;;;;;5106963;27;42988;-77
2024/01/20 02:15:35;;;;;;;;;;;18.00;56.10;;;;;;5107560;27;43586;-77
2024/01/20 02:18:00;;;;;;;;;;;18.00;56.20;;;;;;5107165;27;43072;-78
2024/01/20 02:20:26;;;;;;;;;;;18.00;56.20;;;;;;5107457;27;42953;-77
2024/01/20 02:22:51;;;;;;;;;;;17.90;56.10;;;;;;5107772;27;43219;-77
2024/01/20 02:25:17;;;;;;;;;;;17.90;56.10;;;;;;5107077;27;44437;-76
2024/01/20 02:27:43;;;;;;;;;;;18.00;56.20;;;;;;5087989;27;42783;-77
2024/01/20 02:30:08;;;;;;;;;;;18.00;56.20;;;;;;5106531;27;43039;-77
2024/01/20 02:32:34;;;;;;;;;;;17.90;56.10;;;;;;5106633;27;43096;-77
2024/01/20 02:34:59;;;;;;;;;;;18.00;56.20;;;;;;5106486;27;42933;-77
2024/01/20 02:37:25;;;;;;;;;;;17.90;56.10;;;;;;5106761;27;42928;-78
2024/01/20 02:39:51;;;;;;;;;;;18.00;56.20;;;;;;5106797;27;43833;-75
2024/01/20 02:42:16;;;;;;;;;;;17.90;56.10;;;;;;5106801;27;43057;-77
2024/01/20 02:44:42;;;;;;;;;;;17.90;56.10;;;;;;5106055;27;43060;-75
2024/01/20 02:47:08;;;;;;;;;;;17.90;56.20;;;;;;5106070;27;43023;-77
2024/01/20 02:49:33;;;;;;;;;;;18.00;56.20;;;;;;5106012;27;42999;-76
2024/01/20 02:51:59;;;;;;;;;;;17.90;56.60;;;;;;5106544;27;43173;-76
2024/01/20 02:54:24;;;;;;;;;;;18.00;56.30;;;;;;5106662;27;43579;-76
2024/01/20 02:56:50;;;;;;;;;;;17.90;56.10;;;;;;5112199;27;42907;-76
2024/01/20 02:59:15;;;;;;;;;;;17.90;56.20;;;;;;5108033;27;42879;-77
2024/01/20 03:01:41;;;;;;;;;;;17.90;56.10;;;;;;5106772;27;42850;-76
2024/01/20 03:04:06;;;;;;;;;;;17.90;56.20;;;;;;5106715;27;42867;-77
2024/01/20 03:06:32;;;;;;;;;;;17.90;56.20;;;;;;5105639;27;43020;-76
2024/01/20 03:08:58;;;;;;;;;;;18.00;56.20;;;;;;5105712;27;43559;-77
2024/01/20 03:11:24;;;;;;;;;;;17.90;56.10;;;;;;5106636;27;43081;-77
2024/01/20 03:13:49;;;;;;;;;;;17.90;56.20;;;;;;5106237;27;43554;-77
2024/01/20 03:16:15;;;;;;;;;;;17.90;56.20;;;;;;5105918;27;43065;-76
2024/01/20 03:18:41;;;;;;;;;;;18.00;56.20;;;;;;5106379;27;42988;-76
2024/01/20 03:21:06;;;;;;;;;;;17.90;56.20;;;;;;5106136;27;43121;-75
2024/01/20 03:23:32;;;;;;;;;;;17.90;56.10;;;;;;5106575;27;43336;-76
2024/01/20 03:25:58;;;;;;;;;;;17.90;56.10;;;;;;5106384;27;43092;-77
2024/01/20 03:28:23;;;;;;;;;;;18.00;56.20;;;;;;5105841;27;43004;-76
2024/01/20 03:30:49;;;;;;;;;;;17.90;56.20;;;;;;5087394;27;43188;-77
2024/01/20 03:33:14;;;;;;;;;;;17.90;56.20;;;;;;5106104;27;43976;-77
2024/01/20 03:35:40;;;;;;;;;;;17.90;56.10;;;;;;5106228;27;43091;-78
2024/01/20 03:38:06;;;;;;;;;;;17.90;56.20;;;;;;5105449;27;42913;-76
2024/01/20 03:40:31;;;;;;;;;;;17.90;56.20;;;;;;5105540;27;43013;-76
2024/01/20 03:42:57;;;;;;;;;;;18.00;56.30;;;;;;5106049;27;43937;-76
2024/01/20 03:45:22;;;;;;;;;;;17.90;56.20;;;;;;5105976;27;42960;-76
2024/01/20 03:47:48;;;;;;;;;;;17.90;56.20;;;;;;5105570;27;43954;-77
2024/01/20 03:50:14;;;;;;;;;;;17.90;56.20;;;;;;5105777;27;42744;-76
2024/01/20 03:52:39;;;;;;;;;;;17.90;56.20;;;;;;5105984;27;43463;-77
2024/01/20 03:55:06;;;;;;;;;;;17.90;56.10;;;;;;5105552;27;42762;-77
2024/01/20 03:57:31;;;;;;;;;;;17.90;56.10;;;;;;5093056;27;43995;-77
2024/01/20 03:59:57;;;;;;;;;;;17.90;56.20;;;;;;5106347;27;42945;-77
2024/01/20 04:02:22;;;;;;;;;;;17.90;56.20;;;;;;5106216;27;43173;-77
2024/01/20 04:04:48;;;;;;;;;;;17.90;56.10;;;;;;5105037;27;43034;-78
2024/01/20 04:07:14;;;;;;;;;;;17.90;56.10;;;;;;5104490;27;42972;-77
2024/01/20 04:09:40;;;;;;;;;;;17.90;56.10;;;;;;5104916;27;42980;-77
2024/01/20 04:12:06;;;;;;;;;;;17.90;56.10;;;;;;5103478;27;42949;-77
2024/01/20 04:14:32;;;;;;;;;;;17.90;56.10;;;;;;5104826;27;42913;-76
2024/01/20 04:16:57;;;;;;;;;;;17.90;56.10;;;;;;5104560;27;44371;-76
2024/01/20 04:19:23;;;;;;;;;;;17.90;56.10;;;;;;5104959;27;42772;-76
2024/01/20 04:21:48;;;;;;;;;;;17.90;56.10;;;;;;5104898;27;42820;-76
2024/01/20 04:24:14;;;;;;;;;;;17.90;56.10;;;;;;5105081;27;43036;-76
2024/01/20 04:26:40;;;;;;;;;;;17.90;56.10;;;;;;5105251;27;43807;-76
2024/01/20 04:29:05;;;;;;;;;;;17.90;56.10;;;;;;5105050;27;42983;-76
2024/01/20 04:31:30;;;;;;;;;;;17.90;56.10;;;;;;5104405;27;42948;-77
2024/01/20 04:33:57;;;;;;;;;;;17.90;56.10;;;;;;5105058;27;43163;-76
2024/01/20 04:36:23;;;;;;;;;;;17.90;56.20;;;;;;5104824;27;43669;-77
2024/01/20 04:38:48;;;;;;;;;;;17.90;56.10;;;;;;5105514;27;43019;-76
2024/01/20 04:41:14;;;;;;;;;;;17.90;56.10;;;;;;5105003;27;43524;-78
2024/01/20 04:43:39;;;;;;;;;;;17.80;56.00;;;;;;5104869;27;43040;-77
2024/01/20 04:46:05;;;;;;;;;;;17.90;56.10;;;;;;5104604;27;43823;-77
2024/01/20 04:48:31;;;;;;;;;;;17.80;56.00;;;;;;5105134;27;43012;-76
2024/01/20 04:50:56;;;;;;;;;;;17.90;56.10;;;;;;5104766;27;42981;-77
2024/01/20 04:53:22;;;;;;;;;;;17.90;56.10;;;;;;5106767;27;43086;-77
2024/01/20 04:55:48;;;;;;;;;;;17.90;56.00;;;;;;5108059;27;43460;-77
2024/01/20 04:58:13;;;;;;;;;;;17.90;56.00;;;;;;5108393;27;42817;-77
2024/01/20 05:00:39;;;;;;;;;;;17.90;56.00;;;;;;5108402;27;43686;-77
2024/01/20 05:03:04;;;;;;;;;;;17.90;56.00;;;;;;5108378;27;42794;-77
2024/01/20 05:05:30;;;;;;;;;;;17.90;56.00;;;;;;5108448;27;43474;-76
2024/01/20 05:07:55;;;;;;;;;;;17.90;56.10;;;;;;5108548;27;42728;-76
2024/01/20 05:10:21;;;;;;;;;;;17.80;56.00;;;;;;5108178;27;43020;-77
2024/01/20 05:12:46;;;;;;;;;;;17.80;56.00;;;;;;5108363;27;43127;-78
2024/01/20 05:15:12;;;;;;;;;;;17.90;56.00;;;;;;5108200;27;43376;-76
2024/01/20 05:17:38;;;;;;;;;;;17.80;55.90;;;;;;5109079;27;42971;-77
2024/01/20 05:20:05;;;;;;;;;;;17.90;56.00;;;;;;5111076;27;44841;-77
2024/01/20 05:22:31;;;;;;;;;;;20.20;57.10;;;;;;5111998;27;43198;-77
2024/01/20 05:24:56;;;;;;;;;;;17.80;55.90;;;;;;5109659;27;44001;-77
2024/01/20 05:27:22;;;;;;;;;;;17.80;55.90;;;;;;5107910;27;42873;-76
2024/01/20 05:29:47;;;;;;;;;;;17.80;55.90;;;;;;5088901;27;44597;-77
2024/01/20 05:32:14;;;;;;;;;;;17.80;55.90;;;;;;5107097;27;42945;-77
2024/01/20 05:34:39;;;;;;;;;;;17.80;55.90;;;;;;5107947;27;42878;-77
2024/01/20 05:37:05;;;;;;;;;;;17.80;55.90;;;;;;5107757;27;42952;-76
2024/01/20 05:39:30;;;;;;;;;;;17.80;55.90;;;;;;5107170;27;43618;-77
2024/01/20 05:41:56;;;;;;;;;;;17.80;55.90;;;;;;5107521;27;42879;-77
2024/01/20 05:44:22;;;;;;;;;;;17.80;55.90;;;;;;5107372;27;44008;-76
2024/01/20 05:46:47;;;;;;;;;;;17.90;56.10;;;;;;5107549;27;42964;-78
2024/01/20 05:49:13;;;;;;;;;;;17.80;55.40;;;;;;5107135;27;43066;-77
2024/01/20 05:51:38;;;;;;;;;;;17.80;55.90;;;;;;5107204;27;42927;-78
2024/01/20 05:54:04;;;;;;;;;;;17.80;55.90;;;;;;5107328;27;43112;-78
2024/01/20 05:56:29;;;;;;;;;;;17.80;55.90;;;;;;5107254;27;43287;-76
2024/01/20 05:58:55;;;;;;;;;;;17.80;56.00;;;;;;5106228;27;43051;-77
2024/01/20 06:01:20;;;;;;;;;;;17.80;56.00;;;;;;5106828;27;43082;-78
2024/01/20 06:03:46;;;;;;;;;;;17.80;56.00;;;;;;5105126;27;43048;-78
2024/01/20 06:06:12;;;;;;;;;;;17.80;55.60;;;;;;5087292;27;42966;-78
2024/01/20 06:08:37;;;;;;;;;;;17.80;56.10;;;;;;5106773;27;43703;-77
2024/01/20 06:11:03;;;;;;;;;;;17.80;56.10;;;;;;5107706;27;43084;-78
2024/01/20 06:13:29;;;;;;;;;;;17.80;56.10;;;;;;5107171;27;43195;-77
2024/01/20 06:15:55;;;;;;;;;;;17.80;56.60;;;;;;5106929;27;42985;-78
2024/01/20 06:18:20;;;;;;;;;;;17.80;56.20;;;;;;5087664;27;43659;-77
2024/01/20 06:20:46;;;;;;;;;;;17.80;56.10;;;;;;5088457;27;43052;-79
2024/01/20 06:23:12;;;;;;;;;;;17.80;56.20;;;;;;5104072;27;43426;-78
2024/01/20 06:25:38;;;;;;;;;;;17.80;56.20;;;;;;5105904;27;43076;-78
2024/01/20 06:28:05;;;;;;;;;;;17.40;56.10;;;;;;5103941;27;43651;-78
2024/01/20 06:30:31;;;;;;;;;;;17.80;56.20;;;;;;5106904;27;42985;-77
2024/01/20 06:32:57;;;;;;;;;;;17.80;56.20;;;;;;5106378;27;42862;-76
2024/01/20 06:35:23;;;;;;;;;;;17.80;56.20;;;;;;5106068;27;43072;-79
2024/01/20 06:37:48;;;;;;;;;;;17.80;56.20;;;;;;5103654;27;43643;-76
2024/01/20 06:40:14;;;;;;;;;;;17.80;56.20;;;;;;5106378;27;43318;-77
2024/01/20 06:42:39;;;;;;;;;;;17.80;56.30;;;;;;5107126;27;43084;-78
2024/01/20 06:45:05;;;;;;;;;;;17.80;56.20;;;;;;5106472;27;43024;-78
2024/01/20 06:47:31;;;;;;;;;;;17.80;56.20;;;;;;5106141;27;43967;-77
2024/01/20 06:49:56;;;;;;;;;;;17.80;55.70;;;;;;5104496;27;43324;-78
2024/01/20 06:52:22;;;;;;;;;;;17.80;56.20;;;;;;5106249;27;42933;-79
2024/01/20 06:54:48;;;;;;;;;;;17.80;56.20;;;;;;5106715;27;43212;-76
2024/01/20 06:57:13;;;;;;;;;;;17.80;56.00;;;;;;5106714;27;42971;-79
2024/01/20 06:59:39;;;;;;;;;;;17.80;56.00;;;;;;5106059;27;43233;-77
2024/01/20 07:02:05;;;;;;;;;;;17.80;56.30;;;;;;5106061;27;43016;-77
2024/01/20 07:04:31;;;;;;;;;;;17.70;44.40;;;;;;5104804;27;43332;-78
2024/01/20 07:06:56;;;;;;;;;;;17.20;38.60;;;;;;5105438;27;43821;-79
2024/01/20 07:09:22;;;;;;;;;;;17.00;36.80;;;;;;5092735;27;43088;-77
2024/01/20 07:11:47;;;;;;;;;;;16.60;34.80;;;;;;5105062;27;42836;-75
2024/01/20 07:14:12;;;;;;;;;;;16.30;34.60;;;;;;5105564;27;42874;-78
2024/01/20 07:16:38;;;;;;;;;;;16.10;33.70;;;;;;5106050;27;43809;-78
2024/01/20 07:19:03;;;;;;;;;;;15.80;32.60;;;;;;5105376;27;42966;-78
2024/01/20 07:21:29;;;;;;;;;;;15.70;33.40;;;;;;5103485;27;43579;-79
2024/01/20 07:23:54;;;;;;;;;;;15.50;32.20;;;;;;5105552;27;42906;-78
2024/01/20 07:26:20;;;;;;;;;;;15.30;31.80;;;;;;5105868;27;43642;-78
2024/01/20 07:28:45;;;;;;;;;;;15.20;31.80;;;;;;5104827;27;42960;-78
2024/01/20 07:31:11;;;;;;;;;;;15.10;32.10;;;;;;5105383;27;43047;-79
2024/01/20 07:33:37;;;;;;;;;;;15.10;32.40;;;;;;5105849;27;42986;-78
2024/01/20 07:36:03;;;;;;;;;;;14.90;32.50;;;;;;5105460;27;43032;-78
2024/01/20 07:38:29;;;;;;;;;;;14.90;32.60;;;;;;5105267;27;43113;-78
2024/01/20 07:40:58;;;;;;;;;;;14.90;31.40;;;;;;5105875;27;43005;-78
2024/01/20 07:43:23;;;;;;;;;;;14.70;30.80;;;;;;5107089;27;43388;-79
2024/01/20 07:45:53;;;;;;;;;;;14.80;31.50;;;;;;5109822;27;43348;-79
2024/01/20 07:48:20;;;;;;;;;;;14.80;31.70;;;;;;5106138;27;44203;-79
2024/01/20 07:50:45;;;;;;;;;;;14.80;31.60;;;;;;5104067;27;43029;-78
2024/01/20 07:53:11;;;;;;;;;;;14.70;31.60;;;;;;5105944;27;43000;-78
2024/01/20 07:55:37;;;;;;;;;;;14.70;31.20;;;;;;5104860;27;42987;-79
2024/01/20 07:58:02;;;;;;;;;;;14.60;31.90;;;;;;5105504;27;43050;-79
2024/01/20 08:00:28;;;;;;;;;;;14.70;31.70;;;;;;5092647;27;45376;-78
2024/01/20 08:02:56;;;;;;;;;;;14.50;30.30;;;;;;5106682;27;42937;-79
2024/01/20 08:05:22;;;;;;;;;;;14.50;30.40;;;;;;5106393;27;43715;-78
2024/01/20 08:07:48;;;;;;;;;;;14.40;30.40;;;;;;5103824;27;43110;-78
2024/01/20 08:10:13;;;;;;;;;;;14.40;31.00;;;;;;5105441;27;43576;-79
2024/01/20 08:12:39;;;;;;;;;;;14.50;33.00;;;;;;5105147;27;42981;-79
2024/01/20 08:15:05;;;;;;;;;;;14.40;32.50;;;;;;5103515;27;44253;-79
2024/01/20 08:17:30;;;;;;;;;;;14.50;32.50;;;;;;5105065;27;43016;-78
2024/01/20 08:19:56;;;;;;;;;;;14.30;32.10;;;;;;5104658;27;43037;-78
2024/01/20 08:22:21;;;;;;;;;;;14.40;33.10;;;;;;5095064;27;43582;-78
2024/01/20 08:24:47;;;;;;;;;;;14.30;31.90;;;;;;5102594;27;42993;-79
2024/01/20 08:27:12;;;;;;;;;;;14.40;32.40;;;;;;5104563;27;43026;-78
2024/01/20 08:29:38;;;;;;;;;;;14.30;32.00;;;;;;5095329;27;44727;-79
2024/01/20 08:32:04;;;;;;;;;;;14.30;31.30;;;;;;5105155;27;43059;-79
2024/01/20 08:34:29;;;;;;;;;;;15.00;32.10;;;;;;5103576;27;43446;-79
2024/01/20 08:36:55;;;;;;;;;;;14.30;30.90;;;;;;5104834;27;42950;-79
2024/01/20 08:39:20;;;;;;;;;;;14.30;31.00;;;;;;5105124;27;43169;-80
2024/01/20 08:41:46;;;;;;;;;;;14.40;32.30;;;;;;5104728;27;42981;-79
2024/01/20 08:44:12;;;;;;;;;;;14.50;35.20;;;;;;5104329;27;43187;-79
2024/01/20 08:46:38;;;;;;;;;;;14.70;37.20;;;;;;5105028;27;43068;-79
2024/01/20 08:49:03;;;;;;;;;;;14.80;38.40;;;;;;5100426;27;42952;-78
2024/01/20 08:51:29;;;;;;;;;;;14.90;38.40;;;;;;5100978;27;42930;-79
2024/01/20 08:53:54;;;;;;;;;;;15.20;40.00;;;;;;5103688;27;42949;-78
2024/01/20 08:56:20;;;;;;;;;;;15.30;39.20;;;;;;5103873;27;42869;-78
2024/01/20 08:58:46;;;;;;;;;;;15.40;39.40;;;;;;5103373;27;44019;-78
2024/01/20 09:01:11;;;;;;;;;;;15.50;39.60;;;;;;5104324;27;42898;-79
2024/01/20 09:03:37;;;;;;;;;;;15.60;40.70;;;;;;5103739;27;43065;-78
2024/01/20 09:06:02;;;;;;;;;;;15.70;41.10;;;;;;5104303;27;43164;-79
2024/01/20 09:08:28;;;;;;;;;;;15.80;41.90;;;;;;5104037;27;42906;-79
2024/01/20 09:10:53;;;;;;;;;;;15.90;41.80;;;;;;5101716;27;43002;-78
2024/01/20 09:13:19;;;;;;;;;;;15.90;42.20;;;;;;5103814;27;43107;-79
2024/01/20 09:15:45;;;;;;;;;;;15.90;42.70;;;;;;5104628;27;43087;-79
2024/01/20 09:18:11;;;;;;;;;;;16.00;42.50;;;;;;5104079;27;43155;-79
2024/01/20 09:20:37;;;;;;;;;;;16.00;42.80;;;;;;5103696;27;42943;-79
2024/01/20 09:23:03;;;;;;;;;;;16.10;43.00;;;;;;5103796;27;43404;-78
2024/01/20 09:25:28;;;;;;;;;;;16.10;43.20;;;;;;5104028;27;42985;-77
2024/01/20 09:27:54;;;;;;;;;;;16.20;43.20;;;;;;5103418;27;42930;-79
2024/01/20 09:30:19;;;;;;;;;;;16.20;43.30;;;;;;5103606;27;43072;-78
2024/01/20 09:32:45;;;;;;;;;;;16.20;43.50;;;;;;5103996;27;44364;-77
2024/01/20 09:35:10;;;;;;;;;;;16.20;41.80;;;;;;5103857;27;44153;-78
2024/01/20 09:37:36;;;;;;;;;;;16.20;42.20;;;;;;5103764;27;43146;-78
2024/01/20 09:40:05;;;;;;;;;;;16.20;39.30;;;;;;5106983;27;42984;-77
2024/01/20 09:42:31;;;;;;;;;;;16.10;38.40;;;;;;5102295;27;44775;-78
2024/01/20 09:44:57;;;;;;;;;;;16.10;39.90;;;;;;5106633;27;43043;-78
2024/01/20 09:47:22;;;;;;;;;;;16.10;38.60;;;;;;5107608;27;43357;-77
2024/01/20 09:49:48;;;;;;;;;;;16.10;38.50;;;;;;5107062;27;43058;-77
2024/01/20 09:52:18;;;;;;;;;;;16.10;37.60;;;;;;5107855;27;43728;-78
2024/01/20 09:54:49;;;;;;;;;;;16.00;37.40;;;;;;5107947;27;42890;-78
2024/01/20 09:57:15;;;;;;;;;;;16.00;40.80;;;;;;5106586;27;43734;-77
2024/01/20 09:59:42;;;;;;;;;;;16.10;42.70;;;;;;5105074;27;43235;-77
2024/01/20 10:02:10;;;;;;;;;;;16.00;39.10;;;;;;5108392;27;43047;-76
2024/01/20 10:04:37;;;;;;;;;;;16.00;35.10;;;;;;5107049;27;43287;-76
2024/01/20 10:07:03;;;;;;;;;;;15.80;34.40;;;;;;5106315;27;43063;-76
2024/01/20 10:09:28;;;;;;;;;;;15.60;31.50;;;;;;5104480;27;43006;-76
2024/01/20 10:11:55;;;;;;;;;;;15.50;31.60;;;;;;5106340;27;43583;-76
2024/01/20 10:14:21;;;;;;;;;;;15.40;31.40;;;;;;5107060;27;42955;-76
2024/01/20 10:16:47;;;;;;;;;;;15.30;33.10;;;;;;5106957;27;44162;-77
2024/01/20 10:19:15;;;;;;;;;;;15.30;33.00;;;;;;5103042;27;43019;-78
2024/01/20 10:21:41;;;;;;;;;;;15.30;33.50;;;;;;5106930;27;43605;-79
2024/01/20 10:24:09;;;;;;;;;;;15.30;33.90;;;;;;5106739;27;42834;-84
2024/01/20 10:26:41;;;;;;;;;;;15.30;34.70;;;;;;5106267;27;43282;-80
2024/01/20 10:29:07;;;;;;;;;;;15.40;36.00;;;;;;5105951;27;43354;-79
2024/01/20 10:31:33;;;;;;;;;;;15.50;37.10;;;;;;5106023;27;44298;-81
2024/01/20 10:33:58;;;;;;;;;;;15.50;37.40;;;;;;5093178;27;43005;-81
2024/01/20 10:36:24;;;;;;;;;;;15.70;39.70;;;;;;5086048;27;44473;-83
2024/01/20 10:38:52;;;;;;;;;;;15.70;39.60;;;;;;5099373;27;43002;-82
2024/01/20 10:41:19;;;;;;;;;;;15.80;39.10;;;;;;5106189;27;44078;-82
2024/01/20 10:43:47;;;;;;;;;;;15.80;40.10;;;;;;5102852;27;43141;-80
2024/01/20 10:46:21;;;;;;;;;;;15.90;40.40;;;;;;5106515;27;43583;-80
2024/01/20 10:48:48;;;;;;;;;;;16.00;40.50;;;;;;5100340;27;43310;-81
2024/01/20 10:51:14;;;;;;;;;;;16.20;41.20;;;;;;5105998;27;43605;-80
2024/01/20 10:53:40;;;;;;;;;;;16.10;41.50;;;;;;5105960;27;43306;-81
2024/01/20 10:56:07;;;;;;;;;;;16.00;41.50;;;;;;5106916;27;43077;-81
2024/01/20 10:58:39;;;;;;;;;;;16.10;41.00;;;;;;5107262;27;42810;-81
2024/01/20 11:01:05;;;;;;;;;;;16.10;41.70;;;;;;5107169;27;43488;-80
2024/01/20 11:03:31;;;;;;;;;;;16.20;42.20;;;;;;5106734;27;42985;-81
2024/01/20 11:05:57;;;;;;;;;;;16.20;42.70;;;;;;5106922;27;42941;-80
2024/01/20 11:08:26;;;;;;;;;;;16.20;42.10;;;;;;5107165;27;42934;-81
2024/01/20 11:10:52;;;;;;;;;;;16.20;42.30;;;;;;5106997;27;43103;-80
2024/01/20 11:13:18;;;;;;;;;;;16.20;43.10;;;;;;5106984;27;42929;-80
2024/01/20 11:15:49;;;;;;;;;;;16.20;43.30;;;;;;5106601;27;43540;-80
2024/01/20 11:18:17;;;;;;;;;;;16.30;43.40;;;;;;5106385;27;43024;-81
2024/01/20 11:21:12;;;;;;;;;;;16.20;43.40;;;;;;5106596;27;44003;-81
2024/01/20 11:23:38;;;;;;;;;;;16.30;43.40;;;;;;5064273;27;43096;-81
2024/01/20 11:26:10;;;;;;;;;;;16.30;44.50;;;;;;5106647;27;43079;-81
2024/01/20 11:28:35;;;;;;;;;;;16.50;44.10;;;;;;5107069;27;43104;-80
2024/01/20 11:31:02;;;;;;;;;;;16.50;44.50;;;;;;5106571;27;43466;-80
2024/01/20 11:33:29;;;;;;;;;;;16.40;44.70;;;;;;5106601;27;42945;-80
2024/01/20 11:35:54;;;;;;;;;;;16.30;43.60;;;;;;5106415;27;42992;-81
2024/01/20 11:38:20;;;;;;;;;;;16.40;44.50;;;;;;5106790;27;42994;-80
2024/01/20 11:40:59;;;;;;;;;;;16.40;44.70;;;;;;5106404;27;43025;-81
2024/01/20 11:43:24;;;;;;;;;;;16.40;44.40;;;;;;5106518;27;42931;-80
2024/01/20 11:45:50;;;;;;;;;;;16.50;45.30;;;;;;5105972;27;42948;-81
2024/01/20 11:48:17;;;;;;;;;;;16.40;44.10;;;;;;5106504;27;42854;-81
2024/01/20 11:50:43;;;;;;;;;;;16.40;45.60;;;;;;5087397;27;43456;-81
2024/01/20 11:53:09;;;;;;;;;;;16.50;45.60;;;;;;5105987;27;43043;-80
2024/01/20 11:55:34;;;;;;;;;;;16.40;45.30;;;;;;5105846;27;42957;-81
2024/01/20 11:58:00;;;;;;;;;;;16.40;45.80;;;;;;5105525;27;42924;-81
2024/01/20 12:00:26;;;;;;;;;;;16.50;45.30;;;;;;5104892;27;43148;-79
2024/01/20 12:02:52;;;;;;;;;;;16.40;44.70;;;;;;5105571;27;42903;-80
2024/01/20 12:05:18;;;;;;;;;;;16.40;44.80;;;;;;5087499;27;44549;-80
2024/01/20 12:07:44;;;;;;;;;;;16.40;45.50;;;;;;5105918;27;42894;-80
2024/01/20 12:10:09;;;;;;;;;;;16.50;46.30;;;;;;5105875;27;42967;-80
2024/01/20 12:12:35;;;;;;;;;;;16.50;46.20;;;;;;5105957;27;42948;-80
2024/01/20 12:15:02;;;;;;;;;;;16.60;46.00;;;;;;5105689;27;43914;-81
2024/01/20 12:17:27;;;;;;;;;;;16.50;45.90;;;;;;5106303;27;43037;-80
2024/01/20 12:19:53;;;;;;;;;;;16.60;46.70;;;;;;5111917;27;42953;-80
2024/01/20 12:22:19;;;;;;;;;;;16.70;45.90;;;;;;5107646;27;42933;-80
2024/01/20 12:24:46;;;;;;;;;;;16.50;45.80;;;;;;5103194;27;42977;-81
2024/01/20 12:27:12;;;;;;;;;;;16.70;46.20;;;;;;5104610;27;43183;-81
2024/01/20 12:29:37;;;;;;;;;;;16.60;46.80;;;;;;5104613;27;42910;-81
2024/01/20 12:32:03;;;;;;;;;;;16.70;46.80;;;;;;5099416;27;43307;-80
2024/01/20 12:34:29;;;;;;;;;;;16.80;47.90;;;;;;5100314;27;43346;-81
2024/01/20 12:36:55;;;;;;;;;;;16.60;43.90;;;;;;5094403;27;43111;-81
2024/01/20 12:39:22;;;;;;;;;;;17.30;44.00;;;;;;5104925;27;43503;-81
2024/01/20 12:41:48;;;;;;;;;;;16.50;44.70;;;;;;5105237;27;42918;-81
2024/01/20 12:44:13;;;;;;;;;;;16.60;45.50;;;;;;5104889;27;43001;-81
2024/01/20 12:46:39;;;;;;;;;;;16.60;45.50;;;;;;5087741;27;43088;-81
2024/01/20 12:49:05;;;;;;;;;;;16.60;44.90;;;;;;5083003;28;43056;-81
2024/01/20 12:51:31;;;;;;;;;;;16.60;45.00;;;;;;5085127;27;43041;-78
2024/01/20 12:53:56;;;;;;;;;;;16.70;45.80;;;;;;5103459;27;43320;-79
2024/01/20 12:56:22;;;;;;;;;;;16.70;46.30;;;;;;5103231;27;43440;-78
2024/01/20 12:58:48;;;;;;;;;;;16.60;45.30;;;;;;5101108;27;43116;-78
2024/01/20 13:01:16;;;;;;;;;;;16.70;46.00;;;;;;5104415;27;43018;-79
2024/01/20 13:03:42;;;;;;;;;;;16.70;46.10;;;;;;5100625;27;44810;-79
2024/01/20 13:06:08;;;;;;;;;;;16.70;46.00;;;;;;5102970;27;42941;-78
2024/01/20 13:08:33;;;;;;;;;;;16.70;45.30;;;;;;5101883;27;44203;-75
2024/01/20 13:10:59;;;;;;;;;;;16.70;45.40;;;;;;5103138;27;42921;-77
2024/01/20 13:13:24;;;;;;;;;;;16.70;45.80;;;;;;5106127;27;43787;-78
2024/01/20 13:15:50;;;;;;;;;;;16.70;45.90;;;;;;5106357;27;42853;-78
2024/01/20 13:18:16;;;;;;;;;;;16.80;46.10;;;;;;5107260;27;43454;-78
2024/01/20 13:20:42;;;;;;;;;;;16.80;46.10;;;;;;5108003;27;43000;-77
2024/01/20 13:23:08;;;;;;;;;;;16.80;45.80;;;;;;5104561;27;43450;-78
2024/01/20 13:25:33;;;;;;;;;;;16.80;46.30;;;;;;5105799;27;42968;-78
2024/01/20 13:28:00;;;;;;;;;;;17.20;46.60;;;;;;5104319;27;43548;-79
2024/01/20 13:30:26;;;;;;;;;;;16.80;46.50;;;;;;5100391;27;43061;-79
2024/01/20 13:32:51;;;;;;;;;;;16.90;46.60;;;;;;5087591;28;43016;-79
2024/01/20 13:35:17;;;;;;;;;;;16.90;46.50;;;;;;5086789;28;43053;-79
2024/01/20 13:37:42;;;;;;;;;;;16.90;46.00;;;;;;5099886;27;43656;-79
2024/01/20 13:40:09;;;;;;;;;;;16.90;46.00;;;;;;5108828;27;43008;-79
2024/01/20 13:42:35;;;;;;;;;;;16.90;46.70;;;;;;5108238;27;43357;-79
2024/01/20 13:45:02;;;;;;;;;;;16.90;46.10;;;;;;5108287;27;42940;-79
2024/01/20 13:47:27;;;;;;;;;;;16.90;46.80;;;;;;5108127;27;43535;-79
2024/01/20 13:49:53;;;;;;;;;;;16.80;47.10;;;;;;5108360;27;42810;-79
2024/01/20 13:52:18;;;;;;;;;;;16.90;47.00;;;;;;5108503;27;43231;-79
2024/01/20 13:54:44;;;;;;;;;;;16.90;47.20;;;;;;5108253;27;43033;-79
2024/01/20 13:57:10;;;;;;;;;;;17.00;47.40;;;;;;5107368;27;42905;-79
2024/01/20 13:59:35;;;;;;;;;;;16.90;46.40;;;;;;5107530;27;43190;-80
2024/01/20 14:02:01;;;;;;;;;;;16.90;46.40;;;;;;5108102;27;43146;-79
2024/01/20 14:04:26;;;;;;;;;;;16.90;46.60;;;;;;5108178;27;42891;-80
2024/01/20 14:06:52;;;;;;;;;;;17.00;46.60;;;;;;5107377;27;42951;-80
2024/01/20 14:09:17;;;;;;;;;;;17.00;47.30;;;;;;5107503;27;43656;-79